메인 페이지
METAR-TAF:

METAR-TAF

공항 :

Rahim Yar Khan, 파키스탄

위도: 28-23-02N, 경도: 70-16-47E, 고도: 83m

METAR: 누락

시각: 03:56 (22:56 UTC)

예보

예보는 7 시간 11분 전, 15:45시(UTC)에 발표되었습니다.
예보 대상 시간: 31일 18시부터 01일 12시까지 (UTC)
10kt
시정: 4000m
고도 12000ft 상공 구름 조금
연기
확률 30% :
일시적
01일 01시부터 01일 04시까지 (UTC)
kt
시정: 2000m
박무

TAF: OPRK 311545Z 3118/0112 36010KT 4000 FU FEW120 TN17/0101Z TX30/0110Z PROB30 TEMPO 0101/0104 00000KT 2000 BR NSC

4,000개 이상의 공항 관측 자료 및 예보 (METAR 및 TAF 보고).

지도상에서 검색 가능한 기상관측소가 노란 점과 빨간 점으로 표시되어 있습니다.

기상관측소 명을 보려면 표시 위로 마우스를 이동하세요.

날씨 관측과 예보를 보려면 클릭하세요.

지도 변경 : 확대하려면 엑스 표시가 있는 녹색 버튼, 축소하려면 빼기 표시가 있는 녹색 버튼, 다음 페이지의 지도를 보려면 녹색 화살표를 클릭하세요.


METAR-TAF: